Time;durP1;ratioP1;P1;durP2;ratioP2;P2;SDS_P1;SDS_P2;PMS_P1;PMS_P2;Temp;Humidity;BMP_temperature;BMP_pressure;BME280_temperature;BME280_humidity;BME280_pressure;Samples;Min_cycle;Max_cycle;Signal;HPM_P1;HPM_P2
2021/12/14 00:00:33;;;;;;;18.70;10.80;;;0.70;66.30;;;;;;5033636;28;20032;-24
2021/12/14 00:03:00;;;;;;;20.08;11.90;;;0.60;66.10;;;;;;5034365;28;20026;-25
2021/12/14 00:05:29;;;;;;;12.30;6.50;;;0.60;66.30;;;;;;5033823;28;20033;-25
2021/12/14 00:07:57;;;;;;;13.82;8.48;;;0.60;66.40;;;;;;5034081;28;20079;-24
2021/12/14 00:13:19;;;;;;;32.83;18.15;;;0.60;65.90;;;;;;5033769;28;20048;-24
2021/12/14 00:15:46;;;;;;;13.50;8.40;;;0.60;66.20;;;;;;5034480;28;20026;-25
2021/12/14 00:18:13;;;;;;;17.92;10.48;;;0.50;66.10;;;;;;5033880;28;20033;-25
2021/12/14 00:20:57;;;;;;;15.43;8.05;;;0.50;66.10;;;;;;5033490;28;20029;-25
2021/12/14 00:26:12;;;;;;;33.97;21.70;;;0.50;66.60;;;;;;5033822;28;20036;-25
2021/12/14 00:28:39;;;;;;;14.27;8.70;;;0.50;66.70;;;;;;5033998;28;20082;-25
2021/12/14 00:31:13;;;;;;;20.70;10.75;;;0.40;66.40;;;;;;5033857;28;20021;-25
2021/12/14 00:33:41;;;;;;;22.40;13.60;;;0.40;66.20;;;;;;5033409;28;20528;-25
2021/12/14 00:36:10;;;;;;;17.98;10.52;;;0.40;66.80;;;;;;5033218;28;20059;-24
2021/12/14 00:38:39;;;;;;;16.58;9.00;;;0.40;67.60;;;;;;5033268;28;20026;-25
2021/12/14 00:41:13;;;;;;;14.40;8.50;;;0.40;66.70;;;;;;5033173;28;20034;-25
2021/12/14 00:43:40;;;;;;;23.05;14.65;;;0.40;66.60;;;;;;5033573;28;20049;-24
2021/12/14 00:46:06;;;;;;;14.82;7.57;;;0.30;66.70;;;;;;5031909;28;20072;-24
2021/12/14 00:48:33;;;;;;;15.45;8.55;;;0.30;66.60;;;;;;5033186;28;20036;-25
2021/12/14 00:51:02;;;;;;;16.67;10.70;;;0.30;66.90;;;;;;5031926;28;20022;-23
2021/12/14 00:53:30;;;;;;;17.90;10.23;;;0.30;66.90;;;;;;5033095;28;20025;-24
2021/12/14 00:56:00;;;;;;;33.22;20.23;;;0.30;66.50;;;;;;5033310;28;20037;-25
2021/12/14 00:58:27;;;;;;;23.77;13.57;;;0.30;66.30;;;;;;5033189;28;20099;-25
2021/12/14 01:00:58;;;;;;;36.10;21.48;;;0.30;66.60;;;;;;5033175;28;20367;-25
2021/12/14 01:03:26;;;;;;;41.90;25.73;;;0.30;66.70;;;;;;5033047;28;20057;-25
2021/12/14 01:05:54;;;;;;;31.17;18.75;;;0.30;67.40;;;;;;5033115;28;20018;-24
2021/12/14 01:08:29;;;;;;;17.88;10.30;;;0.20;67.20;;;;;;5033161;28;20060;-24
2021/12/14 01:11:07;;;;;;;17.15;9.18;;;0.20;67.00;;;;;;5035286;28;20470;-24
2021/12/14 01:13:40;;;;;;;16.38;9.55;;;0.20;66.90;;;;;;5037072;28;20025;-24
2021/12/14 01:16:17;;;;;;;17.70;11.65;;;0.20;67.10;;;;;;5037336;28;20025;-24
2021/12/14 01:19:00;;;;;;;54.63;35.35;;;0.20;67.00;;;;;;5037704;28;20029;-25
2021/12/14 01:25:26;;;;;;;23.10;14.27;;;0.10;67.40;;;;;;5036823;28;20334;-25
2021/12/14 01:27:30;;;;;;;25.40;16.40;;;0.10;67.30;;;;;;5036429;28;20060;-25
2021/12/14 01:29:56;;;;;;;12.32;7.57;;;0.10;67.50;;;;;;5037064;28;20029;-25
2021/12/14 01:32:27;;;;;;;28.65;15.10;;;0.10;68.20;;;;;;5036451;28;20025;-25
2021/12/14 01:34:53;;;;;;;21.67;11.60;;;0.10;67.60;;;;;;5036376;28;20029;-24
2021/12/14 01:37:24;;;;;;;23.67;13.10;;;0.00;67.70;;;;;;5036594;28;20033;-25
2021/12/14 01:40:04;;;;;;;42.70;26.40;;;0.00;67.80;;;;;;5036471;28;20025;-24
2021/12/14 01:42:37;;;;;;;23.67;14.52;;;0.00;68.20;;;;;;5036277;28;20611;-24
2021/12/14 01:45:19;;;;;;;17.70;11.20;;;0.00;68.50;;;;;;5036702;28;20026;-25
2021/12/14 01:47:50;;;;;;;16.27;8.73;;;0.00;68.20;;;;;;5037009;28;20033;-25
2021/12/14 01:50:26;;;;;;;16.58;9.20;;;0.00;67.70;;;;;;5036155;28;20117;-25
2021/12/14 01:52:53;;;;;;;15.88;10.27;;;0.00;67.70;;;;;;5036654;28;20026;-25
2021/12/14 01:55:24;;;;;;;15.50;9.48;;;0.00;67.50;;;;;;5036140;28;20029;-25
2021/12/14 01:57:57;;;;;;;29.50;18.27;;;0.00;67.40;;;;;;5036515;28;20039;-25
2021/12/14 02:00:38;;;;;;;17.73;8.82;;;0.00;68.20;;;;;;5035957;28;20025;-25
2021/12/14 02:03:07;;;;;;;16.73;9.27;;;0.00;68.20;;;;;;5036493;28;20108;-24
2021/12/14 02:05:38;;;;;;;10.65;6.60;;;0.00;67.90;;;;;;5036060;28;20385;-25
2021/12/14 02:08:24;;;;;;;12.63;7.60;;;0.00;68.00;;;;;;5036001;28;20034;-24
2021/12/14 02:10:52;;;;;;;15.73;9.95;;;0.00;67.60;;;;;;5036146;28;20041;-24
2021/12/14 02:13:45;;;;;;;18.35;12.65;;;0.00;67.90;;;;;;5035916;28;20416;-25
2021/12/14 02:16:17;;;;;;;16.85;8.80;;;0.00;67.60;;;;;;5036503;28;20030;-25
2021/12/14 02:18:49;;;;;;;19.98;11.68;;;0.00;67.90;;;;;;5036811;28;20021;-24
2021/12/14 02:21:17;;;;;;;15.07;8.27;;;0.00;67.90;;;;;;5034998;28;20033;-25
2021/12/14 02:23:47;;;;;;;28.58;14.80;;;-0.10;67.80;;;;;;5035674;28;20025;-25
2021/12/14 02:26:19;;;;;;;40.45;23.35;;;-0.10;67.80;;;;;;5036108;28;20055;-24
2021/12/14 02:28:47;;;;;;;11.43;6.53;;;-0.10;68.20;;;;;;5036012;28;20030;-25
2021/12/14 02:31:17;;;;;;;12.88;8.18;;;-0.10;68.00;;;;;;5035897;28;20021;-25
2021/12/14 02:33:48;;;;;;;30.85;17.40;;;-0.10;67.90;;;;;;5034334;28;20026;-24
2021/12/14 02:36:28;;;;;;;35.40;17.30;;;-0.10;68.00;;;;;;5035079;28;20497;-25
2021/12/14 02:41:51;;;;;;;13.63;7.57;;;-0.10;68.50;;;;;;5025052;28;20048;-24
2021/12/14 02:44:17;;;;;;;40.45;26.55;;;-0.20;68.80;;;;;;5035281;28;20021;-25
2021/12/14 02:46:52;;;;;;;11.55;6.78;;;-0.20;69.00;;;;;;5035288;28;20033;-25
2021/12/14 02:49:21;;;;;;;19.65;8.02;;;-0.20;68.50;;;;;;5035607;28;20021;-24
2021/12/14 02:51:53;;;;;;;15.32;8.40;;;-0.20;68.40;;;;;;5035207;28;20029;-25
2021/12/14 02:54:32;;;;;;;23.52;14.48;;;-0.20;68.00;;;;;;5034922;28;20025;-25
2021/12/14 02:57:05;;;;;;;16.85;9.73;;;-0.20;67.90;;;;;;5035744;28;20029;-24
2021/12/14 02:59:37;;;;;;;18.48;10.48;;;-0.20;67.90;;;;;;5035176;28;20080;-24
2021/12/14 03:02:12;;;;;;;16.63;9.80;;;-0.20;68.10;;;;;;5035105;28;20040;-24
2021/12/14 03:04:45;;;;;;;32.10;18.77;;;-0.20;68.20;;;;;;5033634;28;20057;-24
2021/12/14 03:07:13;;;;;;;32.08;17.98;;;-0.20;68.90;;;;;;5034833;28;20513;-23
2021/12/14 03:12:21;;;;;;;15.43;8.57;;;-0.20;68.00;;;;;;5035513;28;20442;-23
2021/12/14 03:14:52;;;;;;;16.15;9.80;;;-0.20;68.40;;;;;;5035690;28;20478;-26
2021/12/14 03:17:19;;;;;;;35.67;21.55;;;-0.30;68.30;;;;;;5034754;28;20022;-25
2021/12/14 03:20:26;;;;;;;34.60;19.73;;;-0.30;68.70;;;;;;5034676;28;20022;-25
2021/12/14 03:23:08;;;;;;;45.20;27.67;;;-0.30;68.60;;;;;;5012694;28;20404;-24
2021/12/14 03:25:45;;;;;;;17.70;9.02;;;-0.30;68.80;;;;;;5012752;28;20133;-24
2021/12/14 03:28:13;;;;;;;35.58;22.38;;;-0.30;68.80;;;;;;5012763;28;20108;-24
2021/12/14 03:30:47;;;;;;;21.20;10.68;;;-0.30;68.60;;;;;;5012659;28;20045;-24
2021/12/14 03:33:19;;;;;;;14.43;8.05;;;-0.30;68.50;;;;;;5011742;28;20037;-24
2021/12/14 03:35:54;;;;;;;16.67;9.05;;;-0.40;68.50;;;;;;5012327;28;20058;-25
2021/12/14 03:38:28;;;;;;;20.80;13.63;;;-0.30;68.40;;;;;;5012346;28;20165;-24
2021/12/14 03:41:20;;;;;;;11.82;6.68;;;-0.40;68.70;;;;;;5012373;28;20029;-24
2021/12/14 03:43:58;;;;;;;31.45;18.88;;;-0.40;68.40;;;;;;5012182;28;20042;-23
2021/12/14 03:46:28;;;;;;;15.23;7.45;;;-0.40;68.70;;;;;;5012439;28;20489;-24
2021/12/14 03:48:56;;;;;;;13.55;8.15;;;-0.40;68.90;;;;;;5012436;28;20500;-23
2021/12/14 03:51:24;;;;;;;22.63;14.68;;;-0.40;68.60;;;;;;5012337;28;20101;-25
2021/12/14 03:53:53;;;;;;;15.20;7.70;;;-0.40;68.60;;;;;;5012173;28;20026;-23
2021/12/14 03:56:20;;;;;;;13.48;7.07;;;-0.40;68.90;;;;;;5012059;28;20030;-26
2021/12/14 03:58:47;;;;;;;11.85;6.28;;;-0.40;68.70;;;;;;5013754;28;20571;-24
2021/12/14 04:01:26;;;;;;;10.98;6.20;;;-0.50;69.10;;;;;;5014404;28;20083;-24
2021/12/14 04:03:59;;;;;;;10.23;6.53;;;-0.50;68.80;;;;;;5014184;28;20036;-23
2021/12/14 04:06:27;;;;;;;12.65;7.13;;;-0.50;68.80;;;;;;5014047;28;20172;-23
2021/12/14 04:08:54;;;;;;;12.40;8.40;;;-0.50;68.70;;;;;;5013933;28;20616;-25
2021/12/14 04:11:20;;;;;;;33.30;20.92;;;-0.50;68.50;;;;;;5013986;28;20037;-25
2021/12/14 04:13:49;;;;;;;28.10;18.13;;;-0.50;68.60;;;;;;5012703;28;20505;-23
2021/12/14 04:16:20;;;;;;;15.35;9.80;;;-0.50;69.60;;;;;;5012494;28;20112;-25
2021/12/14 04:18:48;;;;;;;32.65;20.60;;;-0.50;69.00;;;;;;5013905;28;20548;-23
2021/12/14 04:21:14;;;;;;;49.60;29.90;;;-0.50;68.90;;;;;;5013724;28;20026;-25
2021/12/14 04:23:47;;;;;;;36.47;19.02;;;-0.50;70.60;;;;;;5013774;28;20038;-23
2021/12/14 04:26:15;;;;;;;18.77;10.60;;;-0.50;69.80;;;;;;5013897;28;20036;-23
2021/12/14 04:28:49;;;;;;;15.68;8.70;;;-0.50;69.70;;;;;;5014008;28;20026;-25
2021/12/14 04:31:16;;;;;;;16.38;9.63;;;-0.50;69.50;;;;;;5014032;28;20105;-25
2021/12/14 04:33:46;;;;;;;18.00;10.40;;;-0.50;69.30;;;;;;5013792;28;20029;-24
2021/12/14 04:36:17;;;;;;;15.93;9.32;;;-0.50;69.20;;;;;;5025378;28;20061;-23
2021/12/14 04:38:55;;;;;;;12.07;7.40;;;-0.50;69.20;;;;;;5033317;28;20056;-24
2021/12/14 04:52:28;;;;;;;14.07;8.93;;;-0.50;70.50;;;;;;5033576;28;20056;-23
2021/12/14 04:55:01;;;;;;;17.80;10.10;;;-0.50;69.40;;;;;;5033016;28;20386;-23
2021/12/14 04:57:49;;;;;;;19.70;11.68;;;-0.60;69.00;;;;;;5033468;28;20033;-23
2021/12/14 05:00:29;;;;;;;32.00;17.83;;;-0.60;68.90;;;;;;5030533;28;20081;-23
2021/12/14 05:02:59;;;;;;;31.48;17.67;;;-0.60;69.40;;;;;;5033699;28;20025;-23
2021/12/14 05:05:34;;;;;;;31.63;18.02;;;-0.60;69.20;;;;;;5033079;28;20025;-23
2021/12/14 05:11:01;;;;;;;21.65;12.13;;;-0.60;69.40;;;;;;5032849;28;20108;-25
2021/12/14 05:13:43;;;;;;;32.22;19.77;;;-0.60;69.20;;;;;;5032989;28;20028;-23
2021/12/14 05:16:23;;;;;;;16.23;9.05;;;-0.60;69.50;;;;;;5033114;28;20104;-24
2021/12/14 05:18:52;;;;;;;15.57;8.43;;;-0.70;69.30;;;;;;5032959;28;20022;-23
2021/12/14 05:21:35;;;;;;;13.25;7.47;;;-0.70;69.50;;;;;;5033600;28;20116;-23
2021/12/14 05:24:05;;;;;;;18.35;9.65;;;-0.70;69.30;;;;;;5033410;28;20028;-23
2021/12/14 05:26:32;;;;;;;13.15;7.47;;;-0.70;69.50;;;;;;5032557;28;20033;-24
2021/12/14 05:28:59;;;;;;;21.38;12.70;;;-0.70;69.30;;;;;;5032795;28;20112;-24
2021/12/14 05:31:25;;;;;;;29.90;18.17;;;-0.70;69.30;;;;;;5032740;28;20370;-24
2021/12/14 05:33:52;;;;;;;21.90;13.82;;;-0.70;69.40;;;;;;5031532;28;20031;-25
2021/12/14 05:36:20;;;;;;;12.15;6.72;;;-0.70;69.50;;;;;;5032365;28;20045;-24
2021/12/14 05:44:21;;;;;;;31.83;18.20;;;-0.80;69.10;;;;;;5032806;28;20041;-27
2021/12/14 05:46:55;;;;;;;31.77;19.75;;;-0.80;69.50;;;;;;5033039;28;20029;-23
2021/12/14 05:49:24;;;;;;;48.15;26.77;;;-0.80;69.80;;;;;;5032699;28;20060;-25
2021/12/14 05:51:53;;;;;;;37.55;20.00;;;-0.80;71.60;;;;;;5032931;28;20024;-23
2021/12/14 05:54:22;;;;;;;23.40;12.05;;;-0.80;71.80;;;;;;5032265;28;20377;-24
2021/12/14 05:56:49;;;;;;;35.75;18.50;;;-0.80;70.40;;;;;;5032867;28;20029;-23
2021/12/14 05:59:21;;;;;;;21.45;11.07;;;-0.80;71.20;;;;;;5036584;28;20053;-24
2021/12/14 06:01:47;;;;;;;18.13;9.18;;;-0.70;70.90;;;;;;5036421;28;20017;-22
2021/12/14 06:04:14;;;;;;;19.52;11.43;;;-0.70;70.40;;;;;;5036184;28;20106;-26
2021/12/14 06:06:43;;;;;;;17.05;9.35;;;-0.70;70.30;;;;;;5036527;28;20075;-22
2021/12/14 06:09:18;;;;;;;15.98;8.52;;;-0.80;70.00;;;;;;5035973;28;20026;-22
2021/12/14 06:11:47;;;;;;;32.92;19.50;;;-0.80;70.10;;;;;;5036000;28;20033;-22
2021/12/14 06:14:19;;;;;;;16.10;8.80;;;-0.80;70.10;;;;;;5036013;28;20489;-21
2021/12/14 06:16:47;;;;;;;19.15;10.30;;;-0.80;70.00;;;;;;5035915;28;20033;-24
2021/12/14 06:19:29;;;;;;;30.70;18.80;;;-0.80;70.00;;;;;;5035868;28;20409;-23
2021/12/14 06:22:05;;;;;;;17.88;9.45;;;-0.80;71.30;;;;;;5036326;28;20059;-23
2021/12/14 06:24:34;;;;;;;24.67;13.73;;;-0.80;70.60;;;;;;5035856;28;20109;-24
2021/12/14 06:27:04;;;;;;;22.42;13.68;;;-0.80;70.60;;;;;;5035784;28;20041;-22
2021/12/14 06:29:35;;;;;;;22.42;13.63;;;-0.80;70.20;;;;;;5035921;28;20049;-22
2021/12/14 06:32:11;;;;;;;12.48;6.90;;;-0.80;70.00;;;;;;5035977;28;20030;-23
2021/12/14 06:34:45;;;;;;;12.75;7.40;;;-0.80;70.00;;;;;;5035404;28;20489;-23
2021/12/14 06:40:06;;;;;;;13.70;7.85;;;-0.90;69.80;;;;;;5025102;28;20480;-23
2021/12/14 06:42:34;;;;;;;40.22;24.58;;;-0.90;70.60;;;;;;5035148;28;20042;-24
2021/12/14 06:45:16;;;;;;;13.68;8.10;;;-0.90;70.30;;;;;;5036200;28;20465;-22
2021/12/14 06:47:49;;;;;;;17.80;10.63;;;-0.90;70.00;;;;;;5035373;28;20195;-24
2021/12/14 06:50:20;;;;;;;14.03;7.13;;;-0.90;70.20;;;;;;5035213;28;20505;-23
2021/12/14 06:53:04;;;;;;;11.65;5.85;;;-0.90;70.40;;;;;;5035566;28;20074;-23
2021/12/14 06:55:32;;;;;;;17.37;9.70;;;-1.00;70.00;;;;;;5035453;28;20163;-23
2021/12/14 06:58:15;;;;;;;14.23;7.78;;;-1.00;70.20;;;;;;5035143;28;20071;-23
2021/12/14 07:01:05;;;;;;;16.35;9.13;;;-1.00;70.40;;;;;;5035173;28;20128;-22
2021/12/14 07:03:53;;;;;;;24.77;14.00;;;-1.00;70.80;;;;;;5035274;28;20029;-24
2021/12/14 07:06:41;;;;;;;20.02;10.02;;;-1.00;70.30;;;;;;5034811;28;20037;-25
2021/12/14 07:09:33;;;;;;;13.05;8.02;;;-0.90;70.40;;;;;;5035028;28;20056;-23
2021/12/14 07:12:09;;;;;;;18.88;9.48;;;-1.00;70.20;;;;;;5034841;28;20068;-23
2021/12/14 07:14:54;;;;;;;56.97;30.73;;;-0.90;70.60;;;;;;5035028;28;20061;-22
2021/12/14 07:17:27;;;;;;;21.95;12.75;;;-0.90;70.90;;;;;;5035017;28;20014;-23
2021/12/14 07:20:13;;;;;;;34.50;19.40;;;-0.80;70.30;;;;;;5035054;28;20469;-24
2021/12/14 07:22:47;;;;;;;23.33;12.57;;;-0.80;70.70;;;;;;5012539;28;20038;-24
2021/12/14 07:25:20;;;;;;;;;;;-0.70;70.70;;;;;;4996875;28;20034;-23
2021/12/14 07:27:48;;;;;;;14.88;8.00;;;-0.70;70.80;;;;;;5012874;28;19905;-22
2021/12/14 07:30:20;;;;;;;18.10;9.77;;;-0.60;70.50;;;;;;5012520;28;20560;-23
2021/12/14 07:32:59;;;;;;;11.57;6.72;;;-0.60;70.50;;;;;;5013117;28;20064;-22
2021/12/14 07:35:31;;;;;;;23.85;15.05;;;-0.50;70.30;;;;;;5012424;28;20057;-22
2021/12/14 07:38:04;;;;;;;23.50;16.08;;;-0.50;70.10;;;;;;5012672;28;20030;-23
2021/12/14 07:40:39;;;;;;;11.50;7.05;;;-0.40;70.70;;;;;;5012312;28;20129;-23
2021/12/14 07:43:10;;;;;;;33.47;22.75;;;-0.40;70.40;;;;;;5012521;28;20448;-24
2021/12/14 07:45:36;;;;;;;17.13;10.00;;;-0.30;70.90;;;;;;5012513;28;20392;-24
2021/12/14 07:48:03;;;;;;;28.02;15.95;;;-0.30;71.40;;;;;;5012390;28;20053;-24
2021/12/14 07:50:43;;;;;;;27.70;16.98;;;-0.20;70.20;;;;;;5012098;28;20037;-23
2021/12/14 07:53:09;;;;;;;38.05;23.70;;;-0.20;70.70;;;;;;5012597;28;20030;-25
2021/12/14 07:55:42;;;;;;;16.88;10.40;;;-0.10;70.90;;;;;;5012160;28;20507;-23
2021/12/14 07:58:09;;;;;;;30.00;17.95;;;0.00;71.00;;;;;;5012333;28;20109;-25
2021/12/14 08:00:40;;;;;;;19.33;11.85;;;0.00;71.10;;;;;;5030668;28;20540;-23
2021/12/14 08:03:08;;;;;;;20.40;11.93;;;0.00;70.80;;;;;;5034243;28;20038;-23
2021/12/14 08:05:45;;;;;;;31.40;19.33;;;0.00;70.90;;;;;;5033911;28;20026;-23
2021/12/14 08:08:31;;;;;;;23.10;13.68;;;0.20;70.80;;;;;;5033862;28;20071;-23
2021/12/14 08:14:12;;;;;;;25.42;15.45;;;0.40;70.60;;;;;;5011833;28;20038;-23
2021/12/14 08:16:59;;;;;;;23.67;13.27;;;0.60;70.10;;;;;;5011909;28;20422;-22
2021/12/14 08:19:34;;;;;;;28.10;17.10;;;0.80;69.80;;;;;;5011306;28;20026;-22
2021/12/14 08:22:28;;;;;;;31.23;17.08;;;1.00;70.10;;;;;;4995406;28;20065;-23
2021/12/14 08:24:55;;;;;;;19.45;10.57;;;1.20;69.30;;;;;;5011746;28;20030;-25
2021/12/14 08:27:25;;;;;;;17.98;10.43;;;1.50;69.00;;;;;;5011700;28;20371;-24
2021/12/14 08:29:54;;;;;;;15.27;9.02;;;1.70;68.90;;;;;;5011799;28;20034;-25
2021/12/14 08:32:24;;;;;;;31.92;19.98;;;1.90;69.20;;;;;;5011556;28;20482;-24
2021/12/14 08:34:56;;;;;;;16.13;9.75;;;2.10;69.70;;;;;;5011373;28;20034;-25
2021/12/14 08:37:37;;;;;;;21.65;13.85;;;2.40;68.90;;;;;;5011596;28;20037;-25
2021/12/14 08:40:08;;;;;;;24.98;15.50;;;2.60;69.10;;;;;;5011425;28;20038;-24
2021/12/14 08:43:08;;;;;;;18.85;11.98;;;2.90;69.10;;;;;;5011419;28;20123;-24
2021/12/14 08:45:44;;;;;;;14.27;9.55;;;3.10;68.60;;;;;;5011542;28;20057;-24
2021/12/14 08:48:19;;;;;;;18.58;10.05;;;3.40;68.60;;;;;;5023811;28;20041;-24
2021/12/14 08:50:55;;;;;;;13.93;7.90;;;3.70;68.40;;;;;;5033249;28;20085;-25
2021/12/14 08:53:24;;;;;;;16.13;9.65;;;3.90;68.10;;;;;;5033459;28;20159;-24
2021/12/14 08:55:55;;;;;;;31.75;17.42;;;4.10;68.20;;;;;;5032978;28;20026;-24
2021/12/14 08:58:23;;;;;;;17.40;10.48;;;4.40;68.00;;;;;;5032878;28;20032;-24
2021/12/14 09:00:53;;;;;;;18.83;11.10;;;4.70;68.10;;;;;;5033522;28;20014;-24
2021/12/14 09:03:34;;;;;;;24.95;14.65;;;4.90;67.90;;;;;;5033702;28;20026;-24
2021/12/14 09:06:10;;;;;;;18.05;11.20;;;5.10;67.90;;;;;;5033004;28;20462;-24
2021/12/14 09:08:39;;;;;;;15.45;8.43;;;5.40;67.90;;;;;;5032745;28;20032;-25
2021/12/14 09:11:07;;;;;;;16.45;9.25;;;5.60;67.90;;;;;;5032826;28;20485;-24
2021/12/14 09:13:33;;;;;;;12.57;7.75;;;5.80;67.80;;;;;;5033238;28;20505;-25
2021/12/14 09:16:24;;;;;;;14.52;7.80;;;6.00;67.80;;;;;;5033231;28;20029;-24
2021/12/14 09:18:58;;;;;;;14.40;8.40;;;6.20;67.80;;;;;;5033308;28;20060;-24
2021/12/14 09:21:35;;;;;;;13.93;8.20;;;6.40;67.70;;;;;;5033163;28;20033;-25
2021/12/14 09:24:05;;;;;;;15.75;9.57;;;6.60;67.80;;;;;;5033258;28;20026;-25
2021/12/14 09:26:35;;;;;;;20.60;13.18;;;6.80;67.80;;;;;;5032616;28;20034;-25
2021/12/14 09:29:04;;;;;;;16.85;8.95;;;6.90;67.90;;;;;;5033480;28;20079;-24
2021/12/14 09:31:32;;;;;;;15.90;9.60;;;7.10;68.20;;;;;;5035971;28;20040;-25
2021/12/14 09:34:00;;;;;;;13.63;8.20;;;7.20;68.30;;;;;;5036716;28;20036;-24
2021/12/14 09:36:29;;;;;;;13.00;7.93;;;7.40;68.30;;;;;;5036494;28;20046;-25
2021/12/14 09:39:07;;;;;;;17.25;11.30;;;7.60;68.40;;;;;;5036574;28;20393;-25
2021/12/14 09:41:34;;;;;;;14.50;8.45;;;7.80;68.40;;;;;;5036732;28;20473;-25
2021/12/14 09:44:04;;;;;;;13.10;7.18;;;8.00;68.40;;;;;;5036833;28;20102;-25
2021/12/14 09:46:32;;;;;;;13.00;8.80;;;8.20;68.40;;;;;;5036320;28;20083;-25
2021/12/14 09:49:01;;;;;;;11.27;5.97;;;8.40;68.50;;;;;;5036443;28;20497;-25
2021/12/14 09:51:35;;;;;;;13.35;8.60;;;8.60;68.50;;;;;;5035200;28;20021;-25
2021/12/14 09:54:09;;;;;;;20.83;14.00;;;8.80;68.60;;;;;;5036526;28;20071;-25
2021/12/14 09:56:39;;;;;;;16.73;10.93;;;9.00;68.50;;;;;;5036050;28;20033;-24
2021/12/14 09:59:08;;;;;;;12.80;7.38;;;9.20;68.30;;;;;;5036558;28;20504;-24
2021/12/14 10:02:26;;;;;;;12.38;7.82;;;9.50;68.30;;;;;;5036094;28;20033;-25
2021/12/14 10:05:00;;;;;;;12.45;8.98;;;9.70;67.60;;;;;;5034132;28;20036;-24
2021/12/14 10:07:27;;;;;;;12.02;7.63;;;9.90;67.90;;;;;;5036460;28;20022;-24
2021/12/14 10:09:59;;;;;;;15.70;10.68;;;10.10;67.90;;;;;;5035897;28;20489;-24
2021/12/14 10:15:29;;;;;;;10.55;7.18;;;10.30;67.60;;;;;;5036899;28;20033;-24
2021/12/14 10:18:17;;;;;;;13.38;9.15;;;10.50;67.30;;;;;;5035928;28;20482;-24
2021/12/14 10:20:51;;;;;;;14.48;9.18;;;10.60;67.20;;;;;;5036126;28;20029;-25
2021/12/14 10:23:20;;;;;;;12.25;7.72;;;10.80;66.90;;;;;;5036366;28;20026;-25
2021/12/14 10:25:48;;;;;;;10.13;6.45;;;10.90;66.30;;;;;;5035900;28;20053;-26
2021/12/14 10:28:15;;;;;;;11.43;7.47;;;11.10;66.20;;;;;;5036066;28;20052;-24
2021/12/14 10:30:54;;;;;;;16.40;9.93;;;11.30;65.90;;;;;;5035689;28;20048;-25
2021/12/14 10:33:21;;;;;;;13.95;8.75;;;11.50;65.40;;;;;;5035984;28;20025;-25
2021/12/14 10:35:53;;;;;;;13.45;9.02;;;11.80;64.70;;;;;;5035323;28;20064;-25
2021/12/14 10:43:49;;;;;;;14.50;9.05;;;12.60;62.40;;;;;;5035211;28;20500;-25
2021/12/14 10:46:27;;;;;;;17.85;11.68;;;12.90;61.90;;;;;;5035165;28;20025;-26
2021/12/14 10:48:55;;;;;;;25.38;18.40;;;13.00;61.40;;;;;;5036295;28;20059;-24
2021/12/14 10:51:29;;;;;;;21.33;14.00;;;13.30;61.00;;;;;;5035221;28;20036;-25
2021/12/14 10:53:57;;;;;;;24.90;17.95;;;13.40;60.00;;;;;;5035614;28;20025;-26
2021/12/14 10:56:33;;;;;;;20.75;14.68;;;13.60;59.20;;;;;;5034915;28;20030;-25
2021/12/14 10:59:02;;;;;;;18.40;11.73;;;13.80;59.60;;;;;;5035203;28;20032;-25
2021/12/14 11:01:33;;;;;;;21.40;13.07;;;13.90;59.20;;;;;;5035342;28;20099;-25
2021/12/14 11:04:06;;;;;;;29.75;20.65;;;14.10;59.00;;;;;;5035352;28;20393;-25
2021/12/14 11:06:34;;;;;;;18.52;12.90;;;14.20;57.20;;;;;;5034893;28;20553;-25
2021/12/14 11:11:38;;;;;;;15.40;10.55;;;14.40;57.70;;;;;;5034933;28;20029;-26
2021/12/14 11:14:15;;;;;;;19.73;13.75;;;14.60;57.70;;;;;;5035259;28;20022;-25
2021/12/14 11:19:46;;;;;;;18.13;13.52;;;14.90;57.30;;;;;;5035135;28;20051;-26
2021/12/14 11:22:41;;;;;;;17.92;12.13;;;15.00;57.00;;;;;;5035228;28;20105;-26
2021/12/14 11:25:19;;;;;;;16.80;11.20;;;15.10;56.80;;;;;;5034930;28;20034;-25
2021/12/14 11:27:55;;;;;;;18.27;13.48;;;15.20;56.60;;;;;;5034632;28;20447;-26
2021/12/14 11:30:21;;;;;;;15.30;10.15;;;15.30;56.30;;;;;;5034423;28;20029;-25
2021/12/14 11:33:10;;;;;;;18.83;12.65;;;15.30;56.20;;;;;;5034765;28;20025;-26
2021/12/14 11:35:49;;;;;;;25.33;18.63;;;15.40;55.90;;;;;;5034404;28;20045;-26
2021/12/14 11:38:36;;;;;;;15.90;11.88;;;15.40;54.20;;;;;;5034305;28;20116;-26
2021/12/14 11:41:22;;;;;;;14.70;9.88;;;15.40;54.20;;;;;;5034220;28;20084;-25
2021/12/14 11:43:57;;;;;;;13.00;9.52;;;15.40;55.10;;;;;;5034610;28;20112;-25
2021/12/14 11:46:24;;;;;;;11.88;7.13;;;15.40;55.40;;;;;;5034112;28;20021;-25
2021/12/14 11:48:59;;;;;;;13.38;9.02;;;15.40;55.40;;;;;;5034172;28;20444;-26
2021/12/14 11:51:28;;;;;;;13.32;9.40;;;15.40;55.30;;;;;;5034446;28;20025;-26
2021/12/14 11:53:57;;;;;;;11.18;7.25;;;15.50;54.60;;;;;;5033151;28;20040;-26
2021/12/14 11:56:27;;;;;;;10.75;7.10;;;15.50;54.90;;;;;;5033767;28;20060;-25
2021/12/14 11:59:00;;;;;;;11.88;8.32;;;15.60;54.70;;;;;;5033976;28;20033;-26
2021/12/14 12:01:52;;;;;;;;;;;15.60;54.40;;;;;;5034680;28;20025;-26
2021/12/14 12:04:32;;;;;;;8.50;5.93;;;15.60;52.40;;;;;;5032694;28;19909;-26
2021/12/14 12:09:44;;;;;;;12.43;9.05;;;15.70;54.80;;;;;;5034399;28;20108;-26
2021/12/14 12:12:17;;;;;;;11.10;7.60;;;15.60;54.50;;;;;;5033713;28;20100;-26
2021/12/14 12:14:45;;;;;;;10.02;7.60;;;15.60;54.50;;;;;;5034124;28;20472;-26
2021/12/14 12:17:35;;;;;;;10.35;7.35;;;15.60;54.50;;;;;;5034470;28;20067;-26
2021/12/14 12:20:23;;;;;;;13.02;8.70;;;15.60;54.30;;;;;;5033635;28;20037;-26
2021/12/14 12:22:56;;;;;;;13.88;9.93;;;15.60;52.50;;;;;;5032197;28;20429;-25
2021/12/14 12:25:30;;;;;;;17.33;10.50;;;15.50;54.20;;;;;;5033504;28;20104;-26
2021/12/14 12:28:06;;;;;;;8.85;6.47;;;15.50;54.20;;;;;;5033725;28;20117;-25
2021/12/14 12:30:34;;;;;;;10.80;7.35;;;15.40;54.50;;;;;;5033643;28;20020;-26
2021/12/14 12:33:37;;;;;;;13.02;8.40;;;15.40;54.50;;;;;;5033713;28;20457;-26
2021/12/14 12:36:20;;;;;;;10.05;6.72;;;15.40;51.10;;;;;;5031848;28;20523;-26
2021/12/14 12:39:00;;;;;;;10.27;7.03;;;15.30;53.80;;;;;;5033750;28;20051;-26
2021/12/14 12:41:51;;;;;;;10.68;8.07;;;15.30;54.50;;;;;;5033460;28;20056;-25
2021/12/14 12:44:22;;;;;;;12.30;8.73;;;15.30;54.20;;;;;;5033423;28;20079;-25
2021/12/14 12:46:54;;;;;;;10.48;7.63;;;15.20;54.50;;;;;;5033626;28;20097;-25
2021/12/14 12:49:23;;;;;;;12.25;9.15;;;15.20;54.50;;;;;;5033214;28;20025;-25
2021/12/14 12:51:57;;;;;;;12.23;9.57;;;15.30;54.40;;;;;;5033474;28;20030;-26
2021/12/14 12:54:25;;;;;;;;;;;15.30;54.40;;;;;;5033669;28;20492;-25
2021/12/14 12:57:28;;;;;;;13.20;8.85;;;15.40;54.00;;;;;;5033048;28;19912;-26
2021/12/14 12:59:58;;;;;;;10.32;7.15;;;15.40;54.10;;;;;;5033175;28;20359;-26
2021/12/14 13:02:29;;;;;;;9.45;6.72;;;15.50;54.10;;;;;;5033152;28;20057;-25
2021/12/14 13:05:03;;;;;;;15.77;11.95;;;15.70;53.80;;;;;;5033929;28;20104;-25
2021/12/14 13:07:51;;;;;;;13.75;9.70;;;15.90;53.50;;;;;;5040047;28;20096;-26
2021/12/14 13:10:31;;;;;;;11.98;8.68;;;16.00;52.50;;;;;;5039505;28;20161;-26
2021/12/14 13:13:23;;;;;;;16.65;12.45;;;16.10;52.50;;;;;;5039920;28;20433;-25
2021/12/14 13:15:58;;;;;;;12.85;8.95;;;16.30;52.40;;;;;;5039923;28;20029;-26
2021/12/14 13:18:40;;;;;;;13.02;8.45;;;16.40;52.60;;;;;;5039694;28;20025;-26
2021/12/14 13:21:12;;;;;;;9.50;7.32;;;16.40;52.40;;;;;;5040038;28;20037;-26
2021/12/14 13:24:15;;;;;;;15.30;9.80;;;16.40;52.60;;;;;;5039869;28;20033;-25
2021/12/14 13:26:55;;;;;;;9.73;6.47;;;16.50;52.00;;;;;;5038481;28;20057;-25
2021/12/14 13:29:21;;;;;;;8.88;5.97;;;16.50;52.30;;;;;;5039833;28;20029;-26
2021/12/14 13:31:46;;;;;;;10.93;7.38;;;16.50;52.50;;;;;;5040548;28;20021;-26
2021/12/14 13:34:25;;;;;;;11.52;7.47;;;16.40;52.40;;;;;;5039417;28;20042;-25
2021/12/14 13:36:53;;;;;;;9.50;6.07;;;16.40;52.30;;;;;;5039415;28;20058;-26
2021/12/14 13:39:21;;;;;;;14.20;10.48;;;16.30;52.20;;;;;;5039802;28;20029;-26
2021/12/14 13:41:58;;;;;;;12.00;8.07;;;16.30;52.20;;;;;;5039350;28;20026;-26
2021/12/14 13:44:30;;;;;;;11.15;8.13;;;16.20;52.00;;;;;;5039707;28;20017;-25
2021/12/14 13:46:58;;;;;;;9.88;7.22;;;16.10;52.30;;;;;;5039570;28;20102;-26
2021/12/14 13:49:26;;;;;;;10.82;6.88;;;16.00;52.40;;;;;;5039241;28;20025;-26
2021/12/14 13:51:54;;;;;;;11.35;7.82;;;15.90;52.40;;;;;;5039560;28;20057;-25
2021/12/14 13:54:21;;;;;;;15.02;11.55;;;15.80;52.40;;;;;;5039290;28;20029;-26
2021/12/14 13:56:49;;;;;;;13.18;8.50;;;15.70;52.50;;;;;;5039161;28;20079;-26
2021/12/14 13:59:19;;;;;;;12.38;7.93;;;15.60;52.60;;;;;;5039195;28;20534;-25
2021/12/14 14:01:54;;;;;;;9.48;7.00;;;15.50;52.70;;;;;;5039187;28;20448;-26
2021/12/14 14:04:23;;;;;;;14.98;7.97;;;15.40;52.90;;;;;;5039211;28;20060;-25